sensor_id;sensor_type;location;lat;lon;timestamp;P1;durP1;ratioP1;P2;durP2;ratioP2
25359;SDS011;13311;51.386;0.016;2022-12-18T00:00:01;53.28;;;26.40;;
25359;SDS011;13311;51.386;0.016;2022-12-18T00:05:05;52.08;;;26.67;;
25359;SDS011;13311;51.386;0.016;2022-12-18T00:10:06;53.72;;;27.15;;
25359;SDS011;13311;51.386;0.016;2022-12-18T00:15:08;58.17;;;26.48;;
25359;SDS011;13311;51.386;0.016;2022-12-18T00:20:09;49.38;;;26.60;;
25359;SDS011;13311;51.386;0.016;2022-12-18T00:25:10;52.45;;;25.95;;
25359;SDS011;13311;51.386;0.016;2022-12-18T00:30:11;52.63;;;27.50;;
25359;SDS011;13311;51.386;0.016;2022-12-18T00:35:12;49.70;;;25.17;;
25359;SDS011;13311;51.386;0.016;2022-12-18T00:40:13;52.67;;;26.60;;
25359;SDS011;13311;51.386;0.016;2022-12-18T00:45:13;50.38;;;25.92;;
25359;SDS011;13311;51.386;0.016;2022-12-18T00:50:14;49.63;;;25.55;;
25359;SDS011;13311;51.386;0.016;2022-12-18T00:55:16;54.00;;;26.50;;
25359;SDS011;13311;51.386;0.016;2022-12-18T01:00:17;48.00;;;24.88;;
25359;SDS011;13311;51.386;0.016;2022-12-18T01:05:18;58.33;;;26.52;;
25359;SDS011;13311;51.386;0.016;2022-12-18T01:10:19;45.05;;;24.17;;
25359;SDS011;13311;51.386;0.016;2022-12-18T01:15:20;51.97;;;24.17;;
25359;SDS011;13311;51.386;0.016;2022-12-18T01:20:21;46.78;;;24.60;;
25359;SDS011;13311;51.386;0.016;2022-12-18T01:25:21;46.03;;;24.10;;
25359;SDS011;13311;51.386;0.016;2022-12-18T01:30:22;50.22;;;21.83;;
25359;SDS011;13311;51.386;0.016;2022-12-18T01:35:23;40.92;;;22.08;;
25359;SDS011;13311;51.386;0.016;2022-12-18T01:40:24;43.03;;;22.17;;
25359;SDS011;13311;51.386;0.016;2022-12-18T01:45:26;42.67;;;19.50;;
25359;SDS011;13311;51.386;0.016;2022-12-18T01:50:36;42.97;;;21.80;;
25359;SDS011;13311;51.386;0.016;2022-12-18T01:55:43;40.58;;;20.77;;
25359;SDS011;13311;51.386;0.016;2022-12-18T02:00:52;40.30;;;20.42;;
25359;SDS011;13311;51.386;0.016;2022-12-18T02:06:12;44.33;;;22.00;;
25359;SDS011;13311;51.386;0.016;2022-12-18T02:11:40;37.55;;;20.10;;
25359;SDS011;13311;51.386;0.016;2022-12-18T02:17:04;40.47;;;21.23;;
25359;SDS011;13311;51.386;0.016;2022-12-18T02:27:59;41.85;;;20.17;;
25359;SDS011;13311;51.386;0.016;2022-12-18T02:33:04;41.83;;;20.20;;
25359;SDS011;13311;51.386;0.016;2022-12-18T02:38:08;35.10;;;18.33;;
25359;SDS011;13311;51.386;0.016;2022-12-18T02:43:11;38.38;;;19.38;;
25359;SDS011;13311;51.386;0.016;2022-12-18T02:48:18;30.07;;;16.43;;
25359;SDS011;13311;51.386;0.016;2022-12-18T02:53:33;35.55;;;17.83;;
25359;SDS011;13311;51.386;0.016;2022-12-18T02:59:00;37.63;;;18.33;;
25359;SDS011;13311;51.386;0.016;2022-12-18T03:09:44;35.67;;;17.55;;
25359;SDS011;13311;51.386;0.016;2022-12-18T03:20:17;31.80;;;16.60;;
25359;SDS011;13311;51.386;0.016;2022-12-18T03:25:23;31.45;;;16.38;;
25359;SDS011;13311;51.386;0.016;2022-12-18T03:30:28;33.38;;;16.92;;
25359;SDS011;13311;51.386;0.016;2022-12-18T03:35:31;33.65;;;17.00;;
25359;SDS011;13311;51.386;0.016;2022-12-18T03:40:43;40.70;;;18.13;;
25359;SDS011;13311;51.386;0.016;2022-12-18T03:45:51;35.95;;;17.80;;
25359;SDS011;13311;51.386;0.016;2022-12-18T03:51:05;40.67;;;19.80;;
25359;SDS011;13311;51.386;0.016;2022-12-18T03:56:17;41.85;;;20.63;;
25359;SDS011;13311;51.386;0.016;2022-12-18T04:01:20;45.50;;;20.00;;
25359;SDS011;13311;51.386;0.016;2022-12-18T04:06:31;38.15;;;20.70;;
25359;SDS011;13311;51.386;0.016;2022-12-18T04:11:32;42.33;;;22.08;;
25359;SDS011;13311;51.386;0.016;2022-12-18T04:16:33;42.65;;;21.13;;
25359;SDS011;13311;51.386;0.016;2022-12-18T04:21:36;41.45;;;21.50;;
25359;SDS011;13311;51.386;0.016;2022-12-18T04:26:37;39.00;;;20.65;;
25359;SDS011;13311;51.386;0.016;2022-12-18T04:31:38;42.22;;;21.10;;
25359;SDS011;13311;51.386;0.016;2022-12-18T04:36:39;47.95;;;21.40;;
25359;SDS011;13311;51.386;0.016;2022-12-18T04:41:39;44.45;;;21.45;;
25359;SDS011;13311;51.386;0.016;2022-12-18T04:46:41;40.05;;;21.30;;
25359;SDS011;13311;51.386;0.016;2022-12-18T04:51:42;44.80;;;20.38;;
25359;SDS011;13311;51.386;0.016;2022-12-18T04:56:43;43.95;;;21.77;;
25359;SDS011;13311;51.386;0.016;2022-12-18T05:01:44;44.05;;;20.63;;
25359;SDS011;13311;51.386;0.016;2022-12-18T05:06:45;39.97;;;20.52;;
25359;SDS011;13311;51.386;0.016;2022-12-18T05:11:46;40.30;;;20.45;;
25359;SDS011;13311;51.386;0.016;2022-12-18T05:16:47;48.88;;;20.52;;
25359;SDS011;13311;51.386;0.016;2022-12-18T05:21:47;42.30;;;20.05;;
25359;SDS011;13311;51.386;0.016;2022-12-18T05:26:48;42.78;;;19.60;;
25359;SDS011;13311;51.386;0.016;2022-12-18T05:31:49;44.33;;;23.10;;
25359;SDS011;13311;51.386;0.016;2022-12-18T05:36:50;42.85;;;21.85;;
25359;SDS011;13311;51.386;0.016;2022-12-18T05:41:50;44.45;;;22.67;;
25359;SDS011;13311;51.386;0.016;2022-12-18T05:46:51;45.80;;;23.05;;
25359;SDS011;13311;51.386;0.016;2022-12-18T05:51:52;48.60;;;23.73;;
25359;SDS011;13311;51.386;0.016;2022-12-18T05:56:53;49.72;;;24.75;;
25359;SDS011;13311;51.386;0.016;2022-12-18T06:01:56;51.75;;;23.58;;
25359;SDS011;13311;51.386;0.016;2022-12-18T06:06:57;47.70;;;23.83;;
25359;SDS011;13311;51.386;0.016;2022-12-18T06:11:58;49.85;;;23.02;;
25359;SDS011;13311;51.386;0.016;2022-12-18T06:16:59;51.15;;;24.20;;
25359;SDS011;13311;51.386;0.016;2022-12-18T06:22:00;47.00;;;23.40;;
25359;SDS011;13311;51.386;0.016;2022-12-18T06:27:01;43.75;;;23.38;;
25359;SDS011;13311;51.386;0.016;2022-12-18T06:32:02;41.50;;;22.33;;
25359;SDS011;13311;51.386;0.016;2022-12-18T06:37:03;40.28;;;20.13;;
25359;SDS011;13311;51.386;0.016;2022-12-18T06:42:04;47.42;;;22.30;;
25359;SDS011;13311;51.386;0.016;2022-12-18T06:47:05;39.08;;;20.10;;
25359;SDS011;13311;51.386;0.016;2022-12-18T06:52:06;41.33;;;21.02;;
25359;SDS011;13311;51.386;0.016;2022-12-18T06:57:06;39.60;;;20.52;;
25359;SDS011;13311;51.386;0.016;2022-12-18T07:02:10;41.28;;;20.38;;
25359;SDS011;13311;51.386;0.016;2022-12-18T07:07:12;40.85;;;19.50;;
25359;SDS011;13311;51.386;0.016;2022-12-18T07:12:13;39.28;;;19.70;;
25359;SDS011;13311;51.386;0.016;2022-12-18T07:17:14;43.67;;;20.58;;
25359;SDS011;13311;51.386;0.016;2022-12-18T07:22:14;41.88;;;20.05;;
25359;SDS011;13311;51.386;0.016;2022-12-18T07:27:15;37.53;;;20.77;;
25359;SDS011;13311;51.386;0.016;2022-12-18T07:32:16;45.25;;;21.27;;
25359;SDS011;13311;51.386;0.016;2022-12-18T07:37:17;38.08;;;20.25;;
25359;SDS011;13311;51.386;0.016;2022-12-18T07:42:18;39.92;;;20.02;;
25359;SDS011;13311;51.386;0.016;2022-12-18T07:47:33;37.60;;;19.05;;
25359;SDS011;13311;51.386;0.016;2022-12-18T07:52:36;41.40;;;20.15;;
25359;SDS011;13311;51.386;0.016;2022-12-18T07:57:36;42.47;;;19.88;;
25359;SDS011;13311;51.386;0.016;2022-12-18T08:02:37;44.28;;;20.45;;
25359;SDS011;13311;51.386;0.016;2022-12-18T08:07:38;43.35;;;21.67;;
25359;SDS011;13311;51.386;0.016;2022-12-18T08:12:39;42.80;;;20.55;;
25359;SDS011;13311;51.386;0.016;2022-12-18T08:17:41;40.15;;;20.65;;
25359;SDS011;13311;51.386;0.016;2022-12-18T08:22:44;35.88;;;19.65;;
25359;SDS011;13311;51.386;0.016;2022-12-18T08:27:45;42.33;;;21.15;;
25359;SDS011;13311;51.386;0.016;2022-12-18T08:32:46;43.50;;;21.55;;
25359;SDS011;13311;51.386;0.016;2022-12-18T08:37:47;39.05;;;19.88;;
25359;SDS011;13311;51.386;0.016;2022-12-18T08:42:47;37.42;;;19.92;;
25359;SDS011;13311;51.386;0.016;2022-12-18T08:48:07;40.08;;;21.73;;
25359;SDS011;13311;51.386;0.016;2022-12-18T08:53:07;38.42;;;20.45;;
25359;SDS011;13311;51.386;0.016;2022-12-18T08:58:09;34.85;;;20.50;;
25359;SDS011;13311;51.386;0.016;2022-12-18T09:03:11;37.22;;;20.70;;
25359;SDS011;13311;51.386;0.016;2022-12-18T09:08:16;41.42;;;21.52;;
25359;SDS011;13311;51.386;0.016;2022-12-18T09:13:17;37.38;;;20.55;;
25359;SDS011;13311;51.386;0.016;2022-12-18T09:18:19;39.50;;;20.42;;
25359;SDS011;13311;51.386;0.016;2022-12-18T09:23:21;39.78;;;21.08;;
25359;SDS011;13311;51.386;0.016;2022-12-18T09:28:22;37.65;;;20.45;;
25359;SDS011;13311;51.386;0.016;2022-12-18T09:33:23;38.47;;;20.05;;
25359;SDS011;13311;51.386;0.016;2022-12-18T09:38:24;32.08;;;18.90;;
25359;SDS011;13311;51.386;0.016;2022-12-18T09:43:27;39.05;;;21.15;;
25359;SDS011;13311;51.386;0.016;2022-12-18T09:48:47;41.15;;;20.30;;
25359;SDS011;13311;51.386;0.016;2022-12-18T09:53:59;37.03;;;20.42;;
25359;SDS011;13311;51.386;0.016;2022-12-18T09:59:04;32.13;;;18.38;;
25359;SDS011;13311;51.386;0.016;2022-12-18T10:04:07;37.80;;;19.00;;
25359;SDS011;13311;51.386;0.016;2022-12-18T10:14:29;35.58;;;19.02;;
25359;SDS011;13311;51.386;0.016;2022-12-18T10:19:59;31.90;;;17.90;;
25359;SDS011;13311;51.386;0.016;2022-12-18T10:30:33;36.15;;;19.20;;
25359;SDS011;13311;51.386;0.016;2022-12-18T10:35:34;31.42;;;17.52;;
25359;SDS011;13311;51.386;0.016;2022-12-18T10:46:12;29.30;;;16.77;;
25359;SDS011;13311;51.386;0.016;2022-12-18T10:51:27;28.02;;;17.63;;
25359;SDS011;13311;51.386;0.016;2022-12-18T10:56:36;36.30;;;18.77;;
25359;SDS011;13311;51.386;0.016;2022-12-18T11:01:56;29.77;;;17.65;;
25359;SDS011;13311;51.386;0.016;2022-12-18T11:06:59;38.03;;;19.17;;
25359;SDS011;13311;51.386;0.016;2022-12-18T11:12:19;35.42;;;19.05;;
25359;SDS011;13311;51.386;0.016;2022-12-18T11:17:29;33.70;;;17.98;;
25359;SDS011;13311;51.386;0.016;2022-12-18T11:22:35;35.72;;;20.00;;
25359;SDS011;13311;51.386;0.016;2022-12-18T11:27:37;36.33;;;20.38;;
25359;SDS011;13311;51.386;0.016;2022-12-18T11:32:39;36.40;;;20.85;;
25359;SDS011;13311;51.386;0.016;2022-12-18T11:37:46;33.08;;;19.27;;
25359;SDS011;13311;51.386;0.016;2022-12-18T11:43:02;35.35;;;20.50;;
25359;SDS011;13311;51.386;0.016;2022-12-18T11:48:36;33.55;;;20.60;;
25359;SDS011;13311;51.386;0.016;2022-12-18T11:54:01;36.47;;;20.77;;
25359;SDS011;13311;51.386;0.016;2022-12-18T11:59:58;46.28;;;24.08;;
25359;SDS011;13311;51.386;0.016;2022-12-18T12:04:47;37.45;;;23.33;;
25359;SDS011;13311;51.386;0.016;2022-12-18T12:11:02;39.47;;;22.13;;
25359;SDS011;13311;51.386;0.016;2022-12-18T12:21:25;40.72;;;23.75;;
25359;SDS011;13311;51.386;0.016;2022-12-18T12:32:22;35.83;;;21.27;;
25359;SDS011;13311;51.386;0.016;2022-12-18T12:48:48;40.28;;;23.48;;
25359;SDS011;13311;51.386;0.016;2022-12-18T12:53:53;37.35;;;21.17;;
25359;SDS011;13311;51.386;0.016;2022-12-18T12:59:02;36.25;;;21.92;;
25359;SDS011;13311;51.386;0.016;2022-12-18T13:15:27;33.53;;;19.50;;
25359;SDS011;13311;51.386;0.016;2022-12-18T13:25:45;31.65;;;18.80;;
25359;SDS011;13311;51.386;0.016;2022-12-18T13:30:47;32.55;;;19.27;;
25359;SDS011;13311;51.386;0.016;2022-12-18T13:35:51;27.60;;;17.45;;
25359;SDS011;13311;51.386;0.016;2022-12-18T13:41:03;29.60;;;17.20;;
25359;SDS011;13311;51.386;0.016;2022-12-18T13:51:28;22.85;;;14.95;;
25359;SDS011;13311;51.386;0.016;2022-12-18T13:56:33;24.60;;;16.20;;
25359;SDS011;13311;51.386;0.016;2022-12-18T14:01:34;23.63;;;15.45;;
25359;SDS011;13311;51.386;0.016;2022-12-18T14:06:34;22.25;;;15.57;;
25359;SDS011;13311;51.386;0.016;2022-12-18T14:11:35;24.10;;;15.13;;
25359;SDS011;13311;51.386;0.016;2022-12-18T14:16:37;20.50;;;13.55;;
25359;SDS011;13311;51.386;0.016;2022-12-18T14:21:45;22.55;;;13.98;;
25359;SDS011;13311;51.386;0.016;2022-12-18T14:26:48;22.75;;;13.35;;
25359;SDS011;13311;51.386;0.016;2022-12-18T14:37:20;24.25;;;13.45;;
25359;SDS011;13311;51.386;0.016;2022-12-18T14:42:24;22.25;;;14.13;;
25359;SDS011;13311;51.386;0.016;2022-12-18T14:47:27;22.23;;;13.63;;
25359;SDS011;13311;51.386;0.016;2022-12-18T14:52:29;20.52;;;13.15;;
25359;SDS011;13311;51.386;0.016;2022-12-18T14:57:34;19.55;;;14.00;;
25359;SDS011;13311;51.386;0.016;2022-12-18T15:02:37;20.60;;;12.90;;
25359;SDS011;13311;51.386;0.016;2022-12-18T15:07:39;19.63;;;11.85;;
25359;SDS011;13311;51.386;0.016;2022-12-18T15:23:20;16.90;;;11.47;;
25359;SDS011;13311;51.386;0.016;2022-12-18T15:28:38;18.70;;;11.90;;
25359;SDS011;13311;51.386;0.016;2022-12-18T15:38:53;19.25;;;12.15;;
25359;SDS011;13311;51.386;0.016;2022-12-18T15:43:55;18.73;;;10.43;;
25359;SDS011;13311;51.386;0.016;2022-12-18T15:48:57;15.60;;;10.85;;
25359;SDS011;13311;51.386;0.016;2022-12-18T15:53:59;15.68;;;10.73;;
25359;SDS011;13311;51.386;0.016;2022-12-18T15:59:10;15.20;;;10.57;;
25359;SDS011;13311;51.386;0.016;2022-12-18T16:04:15;16.65;;;9.82;;
25359;SDS011;13311;51.386;0.016;2022-12-18T16:09:20;13.25;;;9.43;;
25359;SDS011;13311;51.386;0.016;2022-12-18T16:19:29;10.20;;;6.97;;
25359;SDS011;13311;51.386;0.016;2022-12-18T16:24:31;8.73;;;6.53;;
25359;SDS011;13311;51.386;0.016;2022-12-18T16:29:33;9.05;;;5.28;;
25359;SDS011;13311;51.386;0.016;2022-12-18T16:34:34;7.32;;;4.93;;
25359;SDS011;13311;51.386;0.016;2022-12-18T16:39:35;7.55;;;4.57;;
25359;SDS011;13311;51.386;0.016;2022-12-18T16:44:38;5.80;;;4.68;;
25359;SDS011;13311;51.386;0.016;2022-12-18T16:49:38;6.35;;;4.43;;
25359;SDS011;13311;51.386;0.016;2022-12-18T16:54:39;4.93;;;3.97;;
25359;SDS011;13311;51.386;0.016;2022-12-18T16:59:40;6.50;;;4.70;;
25359;SDS011;13311;51.386;0.016;2022-12-18T17:04:42;6.45;;;4.50;;
25359;SDS011;13311;51.386;0.016;2022-12-18T17:09:43;5.40;;;4.70;;
25359;SDS011;13311;51.386;0.016;2022-12-18T17:14:44;6.43;;;5.15;;
25359;SDS011;13311;51.386;0.016;2022-12-18T17:19:45;6.63;;;5.50;;
25359;SDS011;13311;51.386;0.016;2022-12-18T17:24:46;7.95;;;5.75;;
25359;SDS011;13311;51.386;0.016;2022-12-18T17:29:46;8.52;;;6.00;;
25359;SDS011;13311;51.386;0.016;2022-12-18T17:34:47;6.60;;;5.80;;
25359;SDS011;13311;51.386;0.016;2022-12-18T17:39:48;7.70;;;5.65;;
25359;SDS011;13311;51.386;0.016;2022-12-18T17:44:48;8.45;;;5.75;;
25359;SDS011;13311;51.386;0.016;2022-12-18T17:49:49;7.47;;;4.93;;
25359;SDS011;13311;51.386;0.016;2022-12-18T17:54:50;6.90;;;5.20;;
25359;SDS011;13311;51.386;0.016;2022-12-18T17:59:51;7.43;;;4.78;;
25359;SDS011;13311;51.386;0.016;2022-12-18T18:04:52;5.95;;;4.65;;
25359;SDS011;13311;51.386;0.016;2022-12-18T18:09:53;5.53;;;4.60;;
25359;SDS011;13311;51.386;0.016;2022-12-18T18:14:54;5.72;;;4.35;;
25359;SDS011;13311;51.386;0.016;2022-12-18T18:19:54;6.95;;;5.20;;
25359;SDS011;13311;51.386;0.016;2022-12-18T18:24:56;6.25;;;4.22;;
25359;SDS011;13311;51.386;0.016;2022-12-18T18:29:57;5.80;;;4.65;;
25359;SDS011;13311;51.386;0.016;2022-12-18T18:34:58;5.72;;;4.65;;
25359;SDS011;13311;51.386;0.016;2022-12-18T18:40:01;5.93;;;4.63;;
25359;SDS011;13311;51.386;0.016;2022-12-18T18:45:02;4.63;;;4.13;;
25359;SDS011;13311;51.386;0.016;2022-12-18T18:50:04;5.25;;;4.35;;
25359;SDS011;13311;51.386;0.016;2022-12-18T18:55:05;8.20;;;5.50;;
25359;SDS011;13311;51.386;0.016;2022-12-18T19:00:07;6.60;;;4.97;;
25359;SDS011;13311;51.386;0.016;2022-12-18T19:05:09;5.72;;;4.55;;
25359;SDS011;13311;51.386;0.016;2022-12-18T19:10:09;7.22;;;4.65;;
25359;SDS011;13311;51.386;0.016;2022-12-18T19:15:10;8.30;;;4.43;;
25359;SDS011;13311;51.386;0.016;2022-12-18T19:20:11;6.10;;;5.07;;
25359;SDS011;13311;51.386;0.016;2022-12-18T19:25:12;5.85;;;4.22;;
25359;SDS011;13311;51.386;0.016;2022-12-18T19:30:13;6.28;;;4.80;;
25359;SDS011;13311;51.386;0.016;2022-12-18T19:35:15;7.20;;;4.93;;
25359;SDS011;13311;51.386;0.016;2022-12-18T19:40:16;5.45;;;4.63;;
25359;SDS011;13311;51.386;0.016;2022-12-18T19:45:17;8.65;;;4.95;;
25359;SDS011;13311;51.386;0.016;2022-12-18T19:50:18;5.65;;;4.88;;
25359;SDS011;13311;51.386;0.016;2022-12-18T19:55:19;7.78;;;4.97;;
25359;SDS011;13311;51.386;0.016;2022-12-18T20:00:20;6.68;;;4.50;;
25359;SDS011;13311;51.386;0.016;2022-12-18T20:05:21;6.20;;;4.53;;
25359;SDS011;13311;51.386;0.016;2022-12-18T20:10:24;5.72;;;4.75;;
25359;SDS011;13311;51.386;0.016;2022-12-18T20:15:25;8.18;;;5.03;;
25359;SDS011;13311;51.386;0.016;2022-12-18T20:20:25;7.47;;;5.15;;
25359;SDS011;13311;51.386;0.016;2022-12-18T20:25:26;7.82;;;5.55;;
25359;SDS011;13311;51.386;0.016;2022-12-18T20:30:27;6.90;;;5.03;;
25359;SDS011;13311;51.386;0.016;2022-12-18T20:35:30;8.70;;;5.07;;
25359;SDS011;13311;51.386;0.016;2022-12-18T20:40:32;6.93;;;4.35;;
25359;SDS011;13311;51.386;0.016;2022-12-18T20:45:33;8.10;;;4.53;;
25359;SDS011;13311;51.386;0.016;2022-12-18T20:50:34;6.53;;;4.88;;
25359;SDS011;13311;51.386;0.016;2022-12-18T20:55:39;9.23;;;4.38;;
25359;SDS011;13311;51.386;0.016;2022-12-18T21:00:41;7.97;;;4.38;;
25359;SDS011;13311;51.386;0.016;2022-12-18T21:05:41;8.23;;;4.45;;
25359;SDS011;13311;51.386;0.016;2022-12-18T21:10:42;7.82;;;3.28;;
25359;SDS011;13311;51.386;0.016;2022-12-18T21:15:43;6.93;;;3.08;;
25359;SDS011;13311;51.386;0.016;2022-12-18T21:20:44;4.07;;;2.92;;
25359;SDS011;13311;51.386;0.016;2022-12-18T21:25:44;3.95;;;2.13;;
25359;SDS011;13311;51.386;0.016;2022-12-18T21:30:46;4.47;;;2.40;;
25359;SDS011;13311;51.386;0.016;2022-12-18T21:35:46;4.00;;;2.65;;
25359;SDS011;13311;51.386;0.016;2022-12-18T21:40:48;6.45;;;2.67;;
25359;SDS011;13311;51.386;0.016;2022-12-18T21:45:48;4.57;;;2.35;;
25359;SDS011;13311;51.386;0.016;2022-12-18T21:50:49;3.97;;;2.30;;
25359;SDS011;13311;51.386;0.016;2022-12-18T21:55:58;3.88;;;2.35;;
25359;SDS011;13311;51.386;0.016;2022-12-18T22:01:00;2.70;;;2.15;;
25359;SDS011;13311;51.386;0.016;2022-12-18T22:06:01;3.42;;;1.95;;
25359;SDS011;13311;51.386;0.016;2022-12-18T22:11:02;3.08;;;1.92;;
25359;SDS011;13311;51.386;0.016;2022-12-18T22:16:03;4.18;;;1.52;;
25359;SDS011;13311;51.386;0.016;2022-12-18T22:21:04;3.85;;;2.00;;
25359;SDS011;13311;51.386;0.016;2022-12-18T22:26:05;2.13;;;1.33;;
25359;SDS011;13311;51.386;0.016;2022-12-18T22:31:08;2.72;;;1.85;;
25359;SDS011;13311;51.386;0.016;2022-12-18T22:36:09;2.67;;;1.75;;
25359;SDS011;13311;51.386;0.016;2022-12-18T22:41:09;1.95;;;1.27;;
25359;SDS011;13311;51.386;0.016;2022-12-18T22:46:12;2.35;;;1.48;;
25359;SDS011;13311;51.386;0.016;2022-12-18T22:51:16;2.63;;;1.42;;
25359;SDS011;13311;51.386;0.016;2022-12-18T22:56:18;1.30;;;1.20;;
25359;SDS011;13311;51.386;0.016;2022-12-18T23:01:20;3.38;;;1.92;;
25359;SDS011;13311;51.386;0.016;2022-12-18T23:06:24;3.38;;;1.55;;
25359;SDS011;13311;51.386;0.016;2022-12-18T23:11:26;6.32;;;2.58;;
25359;SDS011;13311;51.386;0.016;2022-12-18T23:16:27;5.25;;;2.50;;
25359;SDS011;13311;51.386;0.016;2022-12-18T23:21:28;5.60;;;2.20;;
25359;SDS011;13311;51.386;0.016;2022-12-18T23:26:29;7.13;;;2.40;;
25359;SDS011;13311;51.386;0.016;2022-12-18T23:31:31;8.10;;;2.35;;
25359;SDS011;13311;51.386;0.016;2022-12-18T23:36:37;4.40;;;2.23;;
25359;SDS011;13311;51.386;0.016;2022-12-18T23:41:38;6.05;;;2.00;;
25359;SDS011;13311;51.386;0.016;2022-12-18T23:46:39;2.83;;;1.60;;
25359;SDS011;13311;51.386;0.016;2022-12-18T23:51:41;3.92;;;1.88;;
25359;SDS011;13311;51.386;0.016;2022-12-18T23:56:41;3.55;;;1.73;;
